createdAt,value
2023-05-10T00:00:17.749Z,16.77
2023-05-10T00:02:45.744Z,16.73
2023-05-10T00:05:14.862Z,16.98
2023-05-10T00:07:45.552Z,16.96
2023-05-10T00:10:13.816Z,17.08
2023-05-10T00:12:41.532Z,16.90
2023-05-10T00:15:10.607Z,16.93
2023-05-10T00:17:39.225Z,17.03
2023-05-10T00:20:07.986Z,16.85
2023-05-10T00:22:36.979Z,17.18
2023-05-10T00:25:04.988Z,16.77
2023-05-10T00:27:32.576Z,17.12
2023-05-10T00:30:00.243Z,17.21
2023-05-10T00:32:28.044Z,16.83
2023-05-10T00:34:55.749Z,17.10
2023-05-10T00:37:23.791Z,16.55
2023-05-10T00:39:52.848Z,16.31
2023-05-10T00:42:20.473Z,16.60
2023-05-10T00:44:48.515Z,16.29
2023-05-10T00:47:16.283Z,16.81
2023-05-10T00:49:44.429Z,16.70
2023-05-10T00:52:12.161Z,16.29
2023-05-10T00:54:39.873Z,16.83
2023-05-10T00:57:09.044Z,16.19
2023-05-10T00:59:36.852Z,17.00
2023-05-10T01:02:04.856Z,16.46
2023-05-10T01:04:32.584Z,16.14
2023-05-10T01:07:00.436Z,16.65
2023-05-10T01:09:28.212Z,15.95
2023-05-10T01:11:56.975Z,16.30
2023-05-10T01:14:28.263Z,16.46
2023-05-10T01:16:56.861Z,16.08
2023-05-10T01:19:26.117Z,16.55
2023-05-10T01:22:04.069Z,16.71
2023-05-10T01:25:04.252Z,16.16
2023-05-10T01:27:49.738Z,15.85
2023-05-10T01:30:43.896Z,16.30
2023-05-10T01:33:21.246Z,15.84
2023-05-10T01:35:55.706Z,15.69
2023-05-10T01:38:31.262Z,15.65
2023-05-10T01:41:09.428Z,16.12
2023-05-10T01:43:49.094Z,16.03
2023-05-10T01:46:19.819Z,16.23
2023-05-10T01:48:53.568Z,15.86
2023-05-10T01:51:25.162Z,15.95
2023-05-10T01:53:56.098Z,15.60
2023-05-10T01:56:28.420Z,15.49
2023-05-10T01:58:57.536Z,15.49
2023-05-10T02:01:27.076Z,15.37
2023-05-10T02:03:57.663Z,15.56
2023-05-10T02:06:26.118Z,15.85
2023-05-10T02:08:55.484Z,15.68
2023-05-10T02:11:25.213Z,15.14
2023-05-10T02:13:55.118Z,15.45
2023-05-10T02:16:27.218Z,16.01
2023-05-10T02:18:58.727Z,15.71
2023-05-10T02:21:27.504Z,15.52
2023-05-10T02:23:56.982Z,15.37
2023-05-10T02:26:26.991Z,15.48
2023-05-10T02:28:56.782Z,15.30
2023-05-10T02:31:25.020Z,15.35
2023-05-10T02:33:53.617Z,15.61
2023-05-10T02:36:24.428Z,15.29
2023-05-10T02:38:53.818Z,15.07
2023-05-10T02:41:23.450Z,15.55
2023-05-10T02:43:52.854Z,15.56
2023-05-10T02:46:20.740Z,15.49
2023-05-10T02:48:48.530Z,15.81
2023-05-10T02:51:20.113Z,15.67
2023-05-10T02:53:52.862Z,15.10
2023-05-10T02:56:26.854Z,15.15
2023-05-10T02:58:54.790Z,14.97
2023-05-10T03:01:22.488Z,15.33
2023-05-10T03:03:50.240Z,15.11
2023-05-10T03:06:18.275Z,14.85
2023-05-10T03:08:47.185Z,15.59
2023-05-10T03:11:34.343Z,15.33
2023-05-10T03:14:12.500Z,14.99
2023-05-10T03:16:47.703Z,15.07
2023-05-10T03:19:20.473Z,15.38
2023-05-10T03:21:53.084Z,15.36
2023-05-10T03:24:23.656Z,14.78
2023-05-10T03:26:57.465Z,15.38
2023-05-10T03:29:27.995Z,15.43
2023-05-10T03:31:56.080Z,15.10
2023-05-10T03:34:25.780Z,15.26
2023-05-10T03:36:53.486Z,14.83
2023-05-10T03:39:22.193Z,14.93
2023-05-10T03:41:49.795Z,14.97
2023-05-10T03:44:18.745Z,14.97
2023-05-10T03:46:46.589Z,14.75
2023-05-10T03:49:14.306Z,14.79
2023-05-10T03:51:42.005Z,14.83
2023-05-10T03:54:09.627Z,14.99
2023-05-10T03:56:37.256Z,15.30
2023-05-10T03:59:08.286Z,14.57
2023-05-10T04:01:37.379Z,14.91
2023-05-10T04:04:05.358Z,15.24
2023-05-10T04:06:33.187Z,14.79
2023-05-10T04:09:04.827Z,15.14
2023-05-10T04:11:32.496Z,14.85
2023-05-10T04:14:00.099Z,14.96
2023-05-10T04:16:27.887Z,15.21
2023-05-10T04:18:57.036Z,15.09
2023-05-10T04:21:24.811Z,15.32
2023-05-10T04:23:52.538Z,15.40
2023-05-10T04:26:20.199Z,15.37
2023-05-10T04:28:47.908Z,15.01
2023-05-10T04:31:15.632Z,15.26
2023-05-10T04:33:43.286Z,15.50
2023-05-10T04:36:12.408Z,15.43
2023-05-10T04:38:40.050Z,14.81
2023-05-10T04:41:09.222Z,15.14
2023-05-10T04:43:37.398Z,15.77
2023-05-10T04:46:05.375Z,15.44
2023-05-10T04:48:33.041Z,15.50
2023-05-10T04:51:00.727Z,15.44
2023-05-10T04:53:29.756Z,15.92
2023-05-10T04:55:57.533Z,16.45
2023-05-10T04:58:25.216Z,16.79
2023-05-10T05:00:52.818Z,18.42
2023-05-10T05:03:20.579Z,18.87
2023-05-10T05:05:48.355Z,18.26
2023-05-10T05:08:15.993Z,17.97
2023-05-10T05:10:44.943Z,19.40
2023-05-10T05:13:14.476Z,22.16
2023-05-10T05:15:42.108Z,22.39
2023-05-10T05:18:09.754Z,20.90
2023-05-10T05:20:37.499Z,19.19
2023-05-10T05:23:05.098Z,17.82
2023-05-10T05:25:32.983Z,17.50
2023-05-10T05:28:02.568Z,18.04
2023-05-10T05:30:30.188Z,17.75
2023-05-10T05:32:57.896Z,17.92
2023-05-10T05:35:25.918Z,18.29
2023-05-10T05:37:53.559Z,19.15
2023-05-10T05:40:21.398Z,19.80
2023-05-10T05:42:49.019Z,20.22
2023-05-10T05:45:18.360Z,19.12
2023-05-10T05:47:46.330Z,18.54
2023-05-10T05:50:14.239Z,18.59
2023-05-10T05:52:41.932Z,19.46
2023-05-10T05:55:09.778Z,18.36
2023-05-10T05:57:37.418Z,17.18
2023-05-10T06:00:06.075Z,17.22
2023-05-10T06:02:35.241Z,17.40
2023-05-10T06:05:03.656Z,17.16
2023-05-10T06:07:31.298Z,17.37
2023-05-10T06:09:59.040Z,16.82
2023-05-10T06:12:26.721Z,17.49
2023-05-10T06:14:54.338Z,17.72
2023-05-10T06:17:22.661Z,18.07
2023-05-10T06:19:51.795Z,17.90
2023-05-10T06:22:19.444Z,17.70
2023-05-10T06:24:47.270Z,17.63
2023-05-10T06:27:14.927Z,18.24
2023-05-10T06:29:42.752Z,17.61
2023-05-10T06:32:10.418Z,17.58
2023-05-10T06:34:38.321Z,17.11
2023-05-10T06:37:07.348Z,17.55
2023-05-10T06:39:35.027Z,17.77
2023-05-10T06:42:03.699Z,17.53
2023-05-10T06:44:31.318Z,17.57
2023-05-10T06:46:59.149Z,17.44
2023-05-10T06:49:26.810Z,17.31
2023-05-10T06:51:54.470Z,17.45
2023-05-10T06:54:24.084Z,17.92
2023-05-10T06:56:51.774Z,17.44
2023-05-10T06:59:20.373Z,17.27
2023-05-10T07:01:48.104Z,18.04
2023-05-10T07:04:15.797Z,18.16
2023-05-10T07:06:43.454Z,18.69
2023-05-10T07:09:11.098Z,18.86
2023-05-10T07:11:40.105Z,18.79
2023-05-10T07:14:07.747Z,18.64
2023-05-10T07:16:35.613Z,18.57
2023-05-10T07:19:03.252Z,19.47
2023-05-10T07:21:32.027Z,18.82
2023-05-10T07:24:00.642Z,19.04
2023-05-10T07:26:28.403Z,18.96
2023-05-10T07:28:57.475Z,19.03
2023-05-10T07:31:25.074Z,19.84
2023-05-10T07:33:52.704Z,19.28
2023-05-10T07:36:20.587Z,19.21
2023-05-10T07:38:48.209Z,18.81
2023-05-10T07:41:15.875Z,18.36
2023-05-10T07:43:43.515Z,18.42
2023-05-10T07:46:12.541Z,18.57
2023-05-10T07:48:40.145Z,17.99
2023-05-10T07:51:10.182Z,18.57
2023-05-10T07:53:37.807Z,19.37
2023-05-10T07:56:24.352Z,18.36
2023-05-10T07:58:51.993Z,19.34
2023-05-10T08:01:21.361Z,18.52
2023-05-10T08:03:49.693Z,18.57
2023-05-10T08:06:17.487Z,18.79
2023-05-10T08:08:46.540Z,19.44
2023-05-10T08:11:14.187Z,19.58
2023-05-10T08:13:41.792Z,20.18
2023-05-10T08:16:09.488Z,19.70
2023-05-10T08:18:39.034Z,19.33
2023-05-10T08:21:06.804Z,19.31
2023-05-10T08:23:34.664Z,18.46
2023-05-10T08:26:02.579Z,19.22
2023-05-10T08:28:30.268Z,19.57
2023-05-10T08:30:57.977Z,19.35
2023-05-10T08:33:25.891Z,19.62
2023-05-10T08:35:54.976Z,19.44
2023-05-10T08:38:22.617Z,18.88
2023-05-10T08:40:52.637Z,19.09
2023-05-10T08:43:21.002Z,19.62
2023-05-10T08:45:50.982Z,19.41
2023-05-10T08:48:19.157Z,18.94
2023-05-10T08:50:48.373Z,19.36
2023-05-10T08:53:18.573Z,19.64
2023-05-10T08:55:46.438Z,18.98
2023-05-10T08:58:14.071Z,18.22
2023-05-10T09:00:42.236Z,19.00
2023-05-10T09:03:10.400Z,19.00
2023-05-10T09:05:38.387Z,18.97
2023-05-10T09:08:06.475Z,17.91
2023-05-10T09:10:35.578Z,18.55
2023-05-10T09:13:04.499Z,18.84
2023-05-10T09:15:32.728Z,18.86
2023-05-10T09:18:03.160Z,19.29
2023-05-10T09:20:30.839Z,18.95
2023-05-10T09:22:59.324Z,19.06
2023-05-10T09:25:28.273Z,18.52
2023-05-10T09:27:58.216Z,18.67
2023-05-10T09:30:29.516Z,17.72
2023-05-10T09:32:58.517Z,18.76
2023-05-10T09:35:29.679Z,19.25
2023-05-10T09:38:00.175Z,19.41
2023-05-10T09:40:29.363Z,19.33
2023-05-10T09:42:59.929Z,19.19
2023-05-10T09:45:29.451Z,18.98
2023-05-10T09:47:57.438Z,18.31
2023-05-10T09:50:25.766Z,18.10
2023-05-10T09:52:55.400Z,18.65
2023-05-10T09:55:24.503Z,19.16
2023-05-10T09:58:03.257Z,18.95
2023-05-10T10:00:37.242Z,18.62
2023-05-10T10:03:05.754Z,18.22
2023-05-10T10:05:34.784Z,18.42
2023-05-10T10:08:07.017Z,18.10
2023-05-10T10:10:35.925Z,18.40
2023-05-10T10:13:05.848Z,18.83
2023-05-10T10:15:34.986Z,18.62
2023-05-10T10:18:04.574Z,18.95
2023-05-10T10:20:32.260Z,19.13
2023-05-10T10:22:59.909Z,19.01
2023-05-10T10:25:27.679Z,17.93
2023-05-10T10:28:13.753Z,18.64
2023-05-10T10:30:44.634Z,18.71
2023-05-10T10:33:32.603Z,17.77
2023-05-10T10:36:02.013Z,17.68
2023-05-10T10:38:38.916Z,17.75
2023-05-10T10:41:12.864Z,17.40
2023-05-10T10:43:41.888Z,18.23
2023-05-10T10:46:16.945Z,17.88
2023-05-10T10:48:50.808Z,18.12
2023-05-10T10:51:18.470Z,17.94
2023-05-10T10:53:46.198Z,17.58
2023-05-10T10:56:16.293Z,17.44
2023-05-10T10:58:52.096Z,17.50
2023-05-10T11:01:20.896Z,17.94
2023-05-10T11:04:19.379Z,18.44
2023-05-10T11:06:47.106Z,18.11
2023-05-10T11:09:15.535Z,18.07
2023-05-10T11:11:56.204Z,17.71
2023-05-10T11:14:26.147Z,17.22
2023-05-10T11:16:53.917Z,17.35
2023-05-10T11:19:21.726Z,16.81
2023-05-10T11:21:50.780Z,17.59
2023-05-10T11:24:20.544Z,16.83
2023-05-10T11:26:48.198Z,17.91
2023-05-10T11:29:15.903Z,17.90
2023-05-10T11:31:49.536Z,17.66
2023-05-10T11:34:25.806Z,17.90
2023-05-10T11:36:55.106Z,17.80
2023-05-10T11:39:23.267Z,18.58
2023-05-10T11:41:51.347Z,18.73
2023-05-10T11:44:19.211Z,18.15
2023-05-10T11:46:48.277Z,17.82
2023-05-10T11:49:15.981Z,18.10
2023-05-10T11:51:44.573Z,18.56
2023-05-10T11:54:13.611Z,18.57
2023-05-10T11:56:42.306Z,18.75
2023-05-10T11:59:10.410Z,18.58
2023-05-10T12:01:38.294Z,18.32
2023-05-10T12:04:07.762Z,18.18
2023-05-10T12:06:41.759Z,18.57
2023-05-10T12:09:10.513Z,17.93
2023-05-10T12:11:42.562Z,18.63
2023-05-10T12:14:11.635Z,18.09
2023-05-10T12:16:39.420Z,18.57
2023-05-10T12:19:08.724Z,18.42
2023-05-10T12:21:36.643Z,17.97
2023-05-10T12:24:05.875Z,18.35
2023-05-10T12:26:34.226Z,18.73
2023-05-10T12:29:16.525Z,19.40
2023-05-10T12:31:55.289Z,19.73
2023-05-10T12:34:28.348Z,19.71
2023-05-10T12:36:56.854Z,19.83
2023-05-10T12:39:24.912Z,19.75
2023-05-10T12:41:52.864Z,19.36
2023-05-10T12:44:23.499Z,18.69
2023-05-10T12:46:51.126Z,19.35
2023-05-10T12:49:19.907Z,19.21
2023-05-10T12:51:48.962Z,19.80
2023-05-10T12:54:16.596Z,19.94
2023-05-10T12:56:44.824Z,19.37
2023-05-10T12:59:12.463Z,19.67
2023-05-10T13:01:40.175Z,19.04
2023-05-10T13:04:07.884Z,19.09
2023-05-10T13:06:36.051Z,20.28
2023-05-10T13:09:05.705Z,20.56
2023-05-10T13:11:33.456Z,20.69
2023-05-10T13:14:01.477Z,19.47
2023-05-10T13:16:29.168Z,19.91
2023-05-10T13:18:57.012Z,19.84
2023-05-10T13:21:25.468Z,19.22
2023-05-10T13:23:53.196Z,19.58
2023-05-10T13:26:22.290Z,19.76
2023-05-10T13:28:50.893Z,19.41
2023-05-10T13:31:18.496Z,19.69
2023-05-10T13:33:46.108Z,20.34
2023-05-10T13:36:13.916Z,20.42
2023-05-10T13:38:41.507Z,19.93
2023-05-10T13:41:09.122Z,20.72
2023-05-10T13:43:38.129Z,21.07
2023-05-10T13:46:06.021Z,19.97
2023-05-10T13:48:33.999Z,19.92
2023-05-10T13:51:01.826Z,19.48
2023-05-10T13:53:30.218Z,19.62
2023-05-10T13:55:58.213Z,19.37
2023-05-10T13:58:25.819Z,19.45
2023-05-10T14:00:54.745Z,20.05
2023-05-10T14:03:22.585Z,20.61
2023-05-10T14:05:50.333Z,20.46
2023-05-10T14:08:18.591Z,20.99
2023-05-10T14:10:46.229Z,21.24
2023-05-10T14:13:14.226Z,20.63
2023-05-10T14:15:41.974Z,20.75
2023-05-10T14:18:10.987Z,21.05
2023-05-10T14:20:38.688Z,19.95
2023-05-10T14:23:06.289Z,21.08
2023-05-10T14:25:34.126Z,21.15
2023-05-10T14:28:01.878Z,21.27
2023-05-10T14:30:29.513Z,21.03
2023-05-10T14:32:59.244Z,21.34
2023-05-10T14:35:28.653Z,21.38
2023-05-10T14:37:56.277Z,20.14
2023-05-10T14:40:23.896Z,20.04
2023-05-10T14:42:53.793Z,20.44
2023-05-10T14:45:21.978Z,21.23
2023-05-10T14:47:49.812Z,20.95
2023-05-10T14:50:35.221Z,20.59
2023-05-10T14:53:05.820Z,21.62
2023-05-10T14:55:33.562Z,21.73
2023-05-10T14:58:01.225Z,21.77
2023-05-10T15:00:32.162Z,20.33
2023-05-10T15:03:00.541Z,21.08
2023-05-10T15:05:28.584Z,21.61
2023-05-10T15:07:56.817Z,21.49
2023-05-10T15:10:26.257Z,20.78
2023-05-10T15:12:53.909Z,20.31
2023-05-10T15:15:21.819Z,20.09
2023-05-10T15:17:49.740Z,20.13
2023-05-10T15:20:17.651Z,20.11
2023-05-10T15:22:45.415Z,19.58
2023-05-10T15:25:13.023Z,19.69
2023-05-10T15:27:44.409Z,19.55
2023-05-10T15:30:13.070Z,19.40
2023-05-10T15:32:41.068Z,19.27
2023-05-10T15:35:10.440Z,19.35
2023-05-10T15:37:38.143Z,19.38
2023-05-10T15:40:06.937Z,19.66
2023-05-10T15:42:34.796Z,19.34
2023-05-10T15:45:03.902Z,19.48
2023-05-10T15:47:32.238Z,19.18
2023-05-10T15:49:59.855Z,19.30
2023-05-10T15:52:28.145Z,19.37
2023-05-10T15:54:55.806Z,19.62
2023-05-10T15:57:23.458Z,19.76
2023-05-10T15:59:51.428Z,19.47
2023-05-10T16:02:21.640Z,19.76
2023-05-10T16:04:49.346Z,19.80
2023-05-10T16:07:16.953Z,19.29
2023-05-10T16:09:44.553Z,19.21
2023-05-10T16:12:12.242Z,19.47
2023-05-10T16:14:39.857Z,19.28
2023-05-10T16:17:07.851Z,19.80
2023-05-10T16:19:36.917Z,19.93
2023-05-10T16:22:04.729Z,20.19
2023-05-10T16:24:32.327Z,20.35
2023-05-10T16:27:00.177Z,20.44
2023-05-10T16:29:27.906Z,20.22
2023-05-10T16:31:55.620Z,20.26
2023-05-10T16:34:24.397Z,20.49
2023-05-10T16:36:53.444Z,20.61
2023-05-10T16:39:21.328Z,20.10
2023-05-10T16:41:48.982Z,20.56
2023-05-10T16:44:18.140Z,20.40
2023-05-10T16:46:47.336Z,20.37
2023-05-10T16:49:15.250Z,20.70
2023-05-10T16:51:43.003Z,20.82
2023-05-10T16:54:11.978Z,20.05
2023-05-10T16:56:39.626Z,20.47
2023-05-10T16:59:07.251Z,20.53
2023-05-10T17:01:35.072Z,20.17
2023-05-10T17:04:02.791Z,19.24
2023-05-10T17:06:30.511Z,19.56
2023-05-10T17:08:58.232Z,19.37
2023-05-10T17:11:27.270Z,19.11
2023-05-10T17:13:54.897Z,19.38
2023-05-10T17:16:22.592Z,18.97
2023-05-10T17:18:50.354Z,18.56
2023-05-10T17:21:18.086Z,19.00
2023-05-10T17:23:45.765Z,19.24
2023-05-10T17:26:13.670Z,18.66
2023-05-10T17:28:42.654Z,18.88
2023-05-10T17:31:10.366Z,19.19
2023-05-10T17:33:38.612Z,19.18
2023-05-10T17:36:06.608Z,18.83
2023-05-10T17:38:34.408Z,18.65
2023-05-10T17:41:02.187Z,18.92
2023-05-10T17:43:29.853Z,18.88
2023-05-10T17:45:58.885Z,18.86
2023-05-10T17:48:26.718Z,18.89
2023-05-10T17:50:54.546Z,18.91
2023-05-10T17:53:22.163Z,18.98
2023-05-10T17:55:49.819Z,19.06
2023-05-10T17:58:17.503Z,19.09
2023-05-10T18:00:45.205Z,19.16
2023-05-10T18:03:14.250Z,19.33
2023-05-10T18:05:41.981Z,18.81
2023-05-10T18:08:09.797Z,18.42
2023-05-10T18:10:39.943Z,18.34
2023-05-10T18:13:09.336Z,18.89
2023-05-10T18:15:37.121Z,19.21
2023-05-10T18:18:05.337Z,18.69
2023-05-10T18:20:34.380Z,18.27
2023-05-10T18:23:02.518Z,18.34
2023-05-10T18:25:30.369Z,18.39
2023-05-10T18:27:58.078Z,18.30
2023-05-10T18:30:25.965Z,18.52
2023-05-10T18:32:53.811Z,18.74
2023-05-10T18:35:21.796Z,18.59
2023-05-10T18:37:51.508Z,18.88
2023-05-10T18:40:19.599Z,18.69
2023-05-10T18:42:47.525Z,18.48
2023-05-10T18:45:15.656Z,17.77
2023-05-10T18:47:43.823Z,18.00
2023-05-10T18:50:12.812Z,18.10
2023-05-10T18:52:40.464Z,18.34
2023-05-10T18:55:10.439Z,18.34
2023-05-10T18:57:41.320Z,18.78
2023-05-10T19:00:11.190Z,18.77
2023-05-10T19:02:38.949Z,18.30
2023-05-10T19:05:07.996Z,18.33
2023-05-10T19:07:35.637Z,18.51
2023-05-10T19:10:03.634Z,18.45
2023-05-10T19:12:32.766Z,18.67
2023-05-10T19:15:00.365Z,18.70
2023-05-10T19:17:29.326Z,18.53
2023-05-10T19:19:57.310Z,18.69
2023-05-10T19:22:36.081Z,18.77
2023-05-10T19:25:12.986Z,18.64
2023-05-10T19:27:42.442Z,18.61
2023-05-10T19:30:11.148Z,18.46
2023-05-10T19:32:38.793Z,18.64
2023-05-10T19:35:07.214Z,18.56
2023-05-10T19:37:34.892Z,18.57
2023-05-10T19:40:02.684Z,18.51
2023-05-10T19:42:30.384Z,18.34
2023-05-10T19:45:00.164Z,18.50
2023-05-10T19:47:27.880Z,18.41
2023-05-10T19:49:55.694Z,18.30
2023-05-10T19:52:23.669Z,18.35
2023-05-10T19:54:51.346Z,18.19
2023-05-10T19:57:18.958Z,18.30
2023-05-10T19:59:46.605Z,18.15
2023-05-10T20:02:15.844Z,17.43
2023-05-10T20:04:43.458Z,17.77
2023-05-10T20:07:12.274Z,18.02
2023-05-10T20:09:39.889Z,17.95
2023-05-10T20:12:07.565Z,18.05
2023-05-10T20:14:35.180Z,18.08
2023-05-10T20:17:02.843Z,17.84
2023-05-10T20:19:31.873Z,17.84
2023-05-10T20:21:59.566Z,17.75
2023-05-10T20:24:27.252Z,17.70
2023-05-10T20:26:54.901Z,17.79
2023-05-10T20:29:22.515Z,17.99
2023-05-10T20:31:50.202Z,17.70
2023-05-10T20:34:18.061Z,17.59
2023-05-10T20:36:47.045Z,17.47
2023-05-10T20:39:15.001Z,17.50
2023-05-10T20:41:43.704Z,17.45
2023-05-10T20:44:11.565Z,17.64
2023-05-10T20:46:39.392Z,17.51
2023-05-10T20:49:09.521Z,17.67
2023-05-10T20:51:37.225Z,17.45
2023-05-10T20:54:06.220Z,17.54
2023-05-10T20:56:34.909Z,17.67
2023-05-10T20:59:02.579Z,17.34
2023-05-10T21:01:31.657Z,17.18
2023-05-10T21:03:59.496Z,17.48
2023-05-10T21:06:27.109Z,17.63
2023-05-10T21:08:54.872Z,17.73
2023-05-10T21:11:23.859Z,17.67
2023-05-10T21:13:52.226Z,17.72
2023-05-10T21:16:19.886Z,17.58
2023-05-10T21:18:47.629Z,17.63
2023-05-10T21:21:15.338Z,17.68
2023-05-10T21:23:42.977Z,17.74
2023-05-10T21:26:10.648Z,17.71
2023-05-10T21:28:40.236Z,17.70
2023-05-10T21:31:07.904Z,17.71
2023-05-10T21:33:35.626Z,17.93
2023-05-10T21:36:03.396Z,17.53
2023-05-10T21:38:31.348Z,17.76
2023-05-10T21:40:58.950Z,17.65
2023-05-10T21:43:26.575Z,17.89
2023-05-10T21:45:55.627Z,17.62
2023-05-10T21:48:23.274Z,17.41
2023-05-10T21:50:50.893Z,17.50
2023-05-10T21:53:18.534Z,17.60
2023-05-10T21:55:46.217Z,17.57
2023-05-10T21:58:13.893Z,17.61
2023-05-10T22:00:41.574Z,17.33
2023-05-10T22:03:10.716Z,17.67
2023-05-10T22:05:38.430Z,17.32
2023-05-10T22:08:06.241Z,17.42
2023-05-10T22:10:33.921Z,17.19
2023-05-10T22:13:01.674Z,17.47
2023-05-10T22:15:29.307Z,17.26
2023-05-10T22:17:56.991Z,17.48
2023-05-10T22:20:26.101Z,17.50
2023-05-10T22:22:55.734Z,17.02
2023-05-10T22:25:23.430Z,16.98
2023-05-10T22:27:51.101Z,17.17
2023-05-10T22:30:19.819Z,17.17
2023-05-10T22:32:47.753Z,17.25
2023-05-10T22:35:15.955Z,17.43
2023-05-10T22:37:44.888Z,16.74
2023-05-10T22:40:13.487Z,17.09
2023-05-10T22:42:41.144Z,17.26
2023-05-10T22:45:10.100Z,17.30
2023-05-10T22:47:37.719Z,17.32
2023-05-10T22:50:09.135Z,17.35
2023-05-10T22:52:38.783Z,16.80
2023-05-10T22:55:09.454Z,17.06
2023-05-10T22:57:37.250Z,17.09
2023-05-10T23:00:06.139Z,17.16
2023-05-10T23:02:33.944Z,17.22
2023-05-10T23:05:01.699Z,16.84
2023-05-10T23:07:29.342Z,16.80
2023-05-10T23:09:56.950Z,16.88
2023-05-10T23:12:25.966Z,16.69
2023-05-10T23:14:53.565Z,16.20
2023-05-10T23:17:21.209Z,16.11
2023-05-10T23:19:48.841Z,16.27
2023-05-10T23:22:16.468Z,16.68
2023-05-10T23:24:44.097Z,16.43
2023-05-10T23:27:12.288Z,16.19
2023-05-10T23:29:41.251Z,15.78
2023-05-10T23:32:09.134Z,16.51
2023-05-10T23:34:36.813Z,16.46
2023-05-10T23:37:04.479Z,16.61
2023-05-10T23:39:32.515Z,16.68
2023-05-10T23:42:00.161Z,16.96
2023-05-10T23:44:27.803Z,16.92
2023-05-10T23:46:56.769Z,16.56
2023-05-10T23:49:24.442Z,16.20
2023-05-10T23:51:52.111Z,16.19
2023-05-10T23:54:19.699Z,16.21
2023-05-10T23:56:47.294Z,16.74
2023-05-10T23:59:14.852Z,16.96
